Flight Track Log - Related Links

Times and Time Zones

All times are in EDT time to prevent confusion due to time zone crossing. See the UAL4380 flight status page for this flight to view local times or setup timezone preferences in your user account.

Time Position Orientation Groundspeed Altitude Reporting Facility
EDT Latitude Longitude Course Direction KTS MPH feet Rate Location/Type
Sun 09:44:53 AM 42.8919 -85.4450 107° East 188 216 3,100  Level Chicago Center
Sun 09:45:55 AM 42.8758 -85.3644 105° East 221 254 5,400 2,274 Climbing Chicago Center
Sun 09:46:57 AM 42.8531 -85.2736 109° East 250 288 7,800 2,323 Climbing Chicago Center
Sun 09:47:59 AM 42.8275 -85.1750 109° East 270 311 10,200 1,984 Climbing Chicago Center
Sun 09:49:01 AM 42.8069 -85.0681 105° East 290 334 11,900 1,645 Climbing Chicago Center
Sun 09:50:00 AM 42.6796 -84.6914 107° East  Level FlightAware Approximate
Sun 09:50:03 AM 42.7858 -84.9194 101° East 331 381 13,600  Level Chicago Center
Sun 09:51:05 AM 42.7661 -84.7883 102° East 352 405 14,900 1,306 Climbing Chicago Center
Sun 09:52:07 AM 42.7469 -84.6514 101° East 364 419 16,300 1,268 Climbing Chicago Center
Sun 09:53:08 AM 42.7258 -84.5119 102° East 372 428 17,500 1,268 Climbing Cleveland Center
Sun 09:54:10 AM 42.7050 -84.3697 101° East 380 437 18,900 1,403 Climbing Cleveland Center
Sun 09:55:12 AM 42.6822 -84.2208 102° East 380 437 20,400 1,597 Climbing Cleveland Center
Sun 09:56:14 AM 42.6614 -84.0806 101° East 380 437 22,200 1,645 Climbing Cleveland Center
Sun 09:57:16 AM 42.6400 -83.9422 102° East 379 436 23,800 1,561 Climbing Cleveland Center
Sun 09:58:17 AM 42.6192 -83.8064 102° East 371 427 25,400 1,707 Climbing Cleveland Center
Sun 09:59:19 AM 42.5936 -83.6428 102° East 371 427 27,300 1,548 Climbing Cleveland Center
Sun 10:00:21 AM 42.5719 -83.5033 102° East 371 427 28,600 1,355 Climbing Cleveland Center
Sun 10:01:23 AM 42.5500 -83.3647 102° East 372 428 30,100 1,548 Climbing Cleveland Center
Sun 10:02:25 AM 42.5283 -83.2275 102° East 371 427 31,800 1,500 Climbing Cleveland Center
Sun 10:03:27 AM 42.5075 -83.0950 102° East 361 415 33,200 1,210 Climbing Cleveland Center
Sun 10:04:29 AM 42.4856 -82.9642 103° East 358 412 34,300 871 Climbing Cleveland Center
Sun 10:05:31 AM 42.4639 -82.8314 102° East 357 411 35,000 339 Climbing Cleveland Center
Sun 10:06:33 AM 42.4394 -82.6922 103° East 377 434 35,000  Level Cleveland Center
Sun 10:07:35 AM 42.4072 -82.5131 104° East 405 466 35,000 387 Level Cleveland Center
Sun 10:08:37 AM 42.3808 -82.3567 103° East 422 486 35,800 871 Climbing Cleveland Center
Sun 10:09:39 AM 42.3539 -82.2050 103° East 420 483 36,800 581 Climbing Cleveland Center
Sun 10:10:41 AM 42.3278 -82.0539 103° East 417 480 37,000 97 Climbing Cleveland Center
Sun 10:11:43 AM 42.2975 -81.8958 104° East 429 494 37,000  Level Cleveland Center
Sun 10:12:45 AM 42.2694 -81.7325 103° East 439 505 37,000  Level Cleveland Center
Sun 10:13:47 AM 42.2333 -81.5394 104° East 448 516 37,000  Level Cleveland Center
Sun 10:14:49 AM 42.2028 -81.3719 104° East 455 524 37,000  Level Cleveland Center
Sun 10:15:51 AM 42.1706 -81.2017 104° East 460 529 37,000  Level Cleveland Center
Sun 10:16:53 AM 42.1386 -81.0331 104° East 460 529 37,000  Level Cleveland Center
Sun 10:17:55 AM 42.1067 -80.8636 104° East 460 529 37,000  Level Cleveland Center
Sun 10:18:57 AM 42.0742 -80.6933 104° East 462 532 37,000  Level Cleveland Center
Sun 10:19:59 AM 42.0428 -80.5250 104° East 461 531 37,000  Level Cleveland Center
Sun 10:21:01 AM 42.0044 -80.3250 104° East 466 536 37,000  Level Cleveland Center
Sun 10:22:03 AM 41.9700 -80.1539 105° East 468 539 37,000  Level Cleveland Center
Sun 10:23:06 AM 41.9367 -79.9878 105° East 469 540 37,000  Level Cleveland Center
Sun 10:24:08 AM 41.9000 -79.8083 105° East 474 545 37,000  Level Cleveland Center
Sun 10:25:10 AM 41.8617 -79.6186 105° East 477 549 37,000  Level Cleveland Center
Sun 10:26:12 AM 41.8261 -79.4447 105° East 477 549 37,000  Level Cleveland Center
Sun 10:27:14 AM 41.7906 -79.2750 106° East 477 549 37,000  Level Cleveland Center
Sun 10:28:16 AM 41.7567 -79.1086 105° East 477 549 37,000  Level Cleveland Center
Sun 10:29:18 AM 41.7208 -78.9372 106° East 479 551 37,000  Level Cleveland Center
Sun 10:30:21 AM 41.6831 -78.7603 106° East 479 551 37,000  Level Cleveland Center
Sun 10:31:23 AM 41.6394 -78.5539 106° East 481 554 37,000 -629 Level Cleveland Center
Sun 10:32:25 AM 41.6025 -78.3844 106° East 479 551 35,700 -1,790 Descending Cleveland Center
Sun 10:33:27 AM 41.5675 -78.2194 106° East 468 539 33,300 -2,226 Descending Cleveland Center
Sun 10:34:29 AM 41.5319 -78.0553 106° East 464 534 31,100 -1,113 Descending Cleveland Center
Sun 10:35:31 AM 41.5000 -77.8897 104° East 464 534 31,000 -48 Descending Cleveland Center
Sun 10:36:33 AM 41.4778 -77.7236 100° East 461 531 31,000  Level Cleveland Center
Sun 10:37:35 AM 41.4497 -77.5247 101° East 459 528 31,000  Level Cleveland Center
Sun 10:38:38 AM 41.4253 -77.3600 101° East 458 527 31,000  Level Cleveland Center
Sun 10:39:40 AM 41.4014 -77.1953 101° East 457 526 31,000 -677 Level Cleveland Center
Sun 10:40:42 AM 41.3769 -77.0281 101° East 460 529 29,600 -1,548 Descending Cleveland Center
Sun 10:41:44 AM 41.3519 -76.8600 101° East 464 534 27,800 -2,177 Descending Cleveland Center
Sun 10:42:46 AM 41.3078 -76.6581 106° East 474 545 25,100 -2,274 Descending Cleveland Center
Sun 10:43:48 AM 41.2631 -76.4961 110° East 473 544 23,100 -1,887 Descending Cleveland Center
Sun 10:44:50 AM 41.2236 -76.3439 109° East 444 511 21,200 -1,941 Descending Cleveland Center
Sun 10:46:04 AM 41.1683 -76.1511 111° Southeast 436 502 18,700 -1,511 Descending New York Center
Sun 10:47:05 AM 41.1308 -76.0078 109° East 424 488 17,800 -1,686 Descending New York Center
Sun 10:48:05 AM 41.0969 -75.8811 110° East 411 473 15,300 -2,250 Descending New York Center
Sun 10:49:05 AM 41.0592 -75.7433 110° East 398 458 13,300 -1,169 Descending New York Center
Sun 10:50:03 AM 41.0192 -75.6003 110° East 392 451 13,000 -150 Descending New York Center
Sun 10:51:05 AM 40.9864 -75.4825 110° East 380 437 13,000 -639 Level New York Center
Sun 10:52:05 AM 40.9481 -75.3453 110° East 373 429 11,700 -1,322 Descending New York Center
Sun 10:53:03 AM 40.9183 -75.2472 112° Southeast 340 391 10,400 -1,311 Descending New York Center
Sun 10:54:04 AM 40.8931 -75.1467 108° East 302 348 9,100 -1,500 Descending New York Center
Sun 10:55:03 AM 40.8614 -75.0431 112° Southeast 274 315 7,400 -1,041 Descending New York Center
Sun 10:56:05 AM 40.8356 -74.9481 110° East 274 315 7,000 -198 Descending New York Center
Sun 10:57:04 AM 40.8289 -74.8464 95° East 274 315 7,000 -303 Level New York Center
Sun 10:58:04 AM 40.8444 -74.7567 77° East 274 315 6,400 -496 Descending New York Center
Sun 10:59:05 AM 40.8625 -74.6481 78° East 274 315 6,000 -202 Descending New York Center
Sun 11:00:03 AM 40.8758 -74.5608 79° East 274 315 6,000  Level New York Center
Sun 11:01:04 AM 40.8936 -74.4550 77° East 274 315 6,000 -50 Level New York Center
Sun 11:02:03 AM 40.9089 -74.3678 77° East 274 315 5,900 -563 Descending New York Center
Sun 11:02:40 AM 40.9333 -74.3000 64° Northeast 274 315 5,100 -680 Descending New York TRACON
Sun 11:03:40 AM 40.9667 -74.2333 56° Northeast 276 318 4,800 -550 Descending New York TRACON
Sun 11:04:40 AM 40.9333 -74.1500 118° Southeast 272 313 4,000 -793 Descending New York TRACON
Sun 11:05:41 AM 40.8833 -74.0667 128° Southeast 266 306 3,200 -700 Descending New York TRACON
Sun 11:06:40 AM 40.8167 -74.0833 191° South 267 307 2,600 -857 Descending New York TRACON
Sun 11:07:40 AM 40.7667 -74.1167 207° Southwest 188 216 1,500 -942 Descending New York TRACON
Sun 11:08:41 AM 40.7333 -74.1500 217° Southwest 146 168 700 -787 Descending New York TRACON

Login

Don't have an account? Register now (free) for customized features, flight alerts, and more!